Brownville, Nebraska
Current Conditions -  °F | °C
As of 12:15 PM on Friday 24 Oct 2014 (Local Time) from KAFK Reporting Station
Scattered Clouds Scattered Clouds  
Wind Chill: 68°   Ceiling: Unl
Heat Index: 68°   Visibility: 10mi
Dew Point: 63°   Wind: 12mph
Humidity: 85%   Direction: 220°SW
Pressure: 29.96"   Gusts: NA
Location:  40.4°N, 95.66°W
Report Text: KAFK 241715Z AUTO 22010KT 10SM SCT009 20/17 A2996 RMK AO2 T01980173
Loading
Personal Weather Stations






























Interactive Weather Map
Tropical Storm Tracking
New forecast layout! Learn more

10-Day Weather Forecast

Advertisements
Track Severe Weather on mobile